sensor_id;sensor_type;location;lat;lon;timestamp;P1;durP1;ratioP1;P2;durP2;ratioP2
40691;SDS011;26377;53.344;14.886;2022-07-23T00:01:09;9.05;;;6.30;;
40691;SDS011;26377;53.344;14.886;2022-07-23T00:03:39;12.10;;;7.75;;
40691;SDS011;26377;53.344;14.886;2022-07-23T00:06:10;13.28;;;6.03;;
40691;SDS011;26377;53.344;14.886;2022-07-23T00:08:40;9.93;;;6.15;;
40691;SDS011;26377;53.344;14.886;2022-07-23T00:11:08;8.40;;;6.47;;
40691;SDS011;26377;53.344;14.886;2022-07-23T00:13:35;8.38;;;6.78;;
40691;SDS011;26377;53.344;14.886;2022-07-23T00:16:04;9.00;;;6.90;;
40691;SDS011;26377;53.344;14.886;2022-07-23T00:18:35;9.93;;;7.17;;
40691;SDS011;26377;53.344;14.886;2022-07-23T00:21:04;11.00;;;7.65;;
40691;SDS011;26377;53.344;14.886;2022-07-23T00:23:32;9.75;;;7.35;;
40691;SDS011;26377;53.344;14.886;2022-07-23T00:25:59;9.60;;;7.42;;
40691;SDS011;26377;53.344;14.886;2022-07-23T00:28:28;13.45;;;8.38;;
40691;SDS011;26377;53.344;14.886;2022-07-23T00:30:57;13.28;;;8.98;;
40691;SDS011;26377;53.344;14.886;2022-07-23T00:33:24;12.07;;;8.13;;
40691;SDS011;26377;53.344;14.886;2022-07-23T00:35:52;11.70;;;8.65;;
40691;SDS011;26377;53.344;14.886;2022-07-23T00:38:21;10.05;;;7.92;;
40691;SDS011;26377;53.344;14.886;2022-07-23T00:40:49;12.23;;;7.85;;
40691;SDS011;26377;53.344;14.886;2022-07-23T00:43:16;12.50;;;8.38;;
40691;SDS011;26377;53.344;14.886;2022-07-23T00:45:50;10.23;;;7.60;;
40691;SDS011;26377;53.344;14.886;2022-07-23T00:48:19;8.93;;;7.80;;
40691;SDS011;26377;53.344;14.886;2022-07-23T00:50:47;11.00;;;7.75;;
40691;SDS011;26377;53.344;14.886;2022-07-23T00:53:14;12.13;;;8.05;;
40691;SDS011;26377;53.344;14.886;2022-07-23T00:55:43;10.60;;;8.10;;
40691;SDS011;26377;53.344;14.886;2022-07-23T00:58:12;14.55;;;9.30;;
40691;SDS011;26377;53.344;14.886;2022-07-23T01:00:41;13.13;;;7.90;;
40691;SDS011;26377;53.344;14.886;2022-07-23T01:03:11;12.00;;;7.92;;
40691;SDS011;26377;53.344;14.886;2022-07-23T01:05:40;9.65;;;7.58;;
40691;SDS011;26377;53.344;14.886;2022-07-23T01:08:09;12.13;;;8.05;;
40691;SDS011;26377;53.344;14.886;2022-07-23T01:10:38;12.80;;;7.55;;
40691;SDS011;26377;53.344;14.886;2022-07-23T01:13:08;11.60;;;7.75;;
40691;SDS011;26377;53.344;14.886;2022-07-23T01:15:39;10.98;;;7.33;;
40691;SDS011;26377;53.344;14.886;2022-07-23T01:18:07;9.00;;;6.45;;
40691;SDS011;26377;53.344;14.886;2022-07-23T01:20:36;9.28;;;6.45;;
40691;SDS011;26377;53.344;14.886;2022-07-23T01:23:07;11.65;;;6.92;;
40691;SDS011;26377;53.344;14.886;2022-07-23T01:25:47;9.35;;;6.80;;
40691;SDS011;26377;53.344;14.886;2022-07-23T01:28:19;11.70;;;7.33;;
40691;SDS011;26377;53.344;14.886;2022-07-23T01:30:48;11.25;;;7.85;;
40691;SDS011;26377;53.344;14.886;2022-07-23T01:33:16;15.50;;;9.33;;
40691;SDS011;26377;53.344;14.886;2022-07-23T01:35:43;14.53;;;9.58;;
40691;SDS011;26377;53.344;14.886;2022-07-23T01:38:16;15.75;;;9.18;;
40691;SDS011;26377;53.344;14.886;2022-07-23T01:40:47;15.80;;;9.70;;
40691;SDS011;26377;53.344;14.886;2022-07-23T01:43:16;16.95;;;10.08;;
40691;SDS011;26377;53.344;14.886;2022-07-23T01:45:44;33.30;;;10.20;;
40691;SDS011;26377;53.344;14.886;2022-07-23T01:48:12;17.73;;;9.30;;
40691;SDS011;26377;53.344;14.886;2022-07-23T01:50:43;7.85;;;6.55;;
40691;SDS011;26377;53.344;14.886;2022-07-23T01:53:25;17.50;;;6.75;;
40691;SDS011;26377;53.344;14.886;2022-07-23T01:55:52;25.00;;;7.87;;
40691;SDS011;26377;53.344;14.886;2022-07-23T01:58:19;10.80;;;6.92;;
40691;SDS011;26377;53.344;14.886;2022-07-23T02:00:50;10.50;;;7.78;;
40691;SDS011;26377;53.344;14.886;2022-07-23T02:03:19;10.80;;;7.75;;
40691;SDS011;26377;53.344;14.886;2022-07-23T02:05:51;11.28;;;7.30;;
40691;SDS011;26377;53.344;14.886;2022-07-23T02:08:21;12.33;;;7.92;;
40691;SDS011;26377;53.344;14.886;2022-07-23T02:10:49;13.20;;;9.10;;
40691;SDS011;26377;53.344;14.886;2022-07-23T02:13:17;14.53;;;8.73;;
40691;SDS011;26377;53.344;14.886;2022-07-23T02:15:47;27.87;;;8.65;;
40691;SDS011;26377;53.344;14.886;2022-07-23T02:18:16;41.08;;;9.95;;
40691;SDS011;26377;53.344;14.886;2022-07-23T02:20:47;16.27;;;9.80;;
40691;SDS011;26377;53.344;14.886;2022-07-23T02:23:15;17.70;;;10.00;;
40691;SDS011;26377;53.344;14.886;2022-07-23T02:25:42;13.05;;;9.85;;
40691;SDS011;26377;53.344;14.886;2022-07-23T02:28:11;13.05;;;9.60;;
40691;SDS011;26377;53.344;14.886;2022-07-23T02:30:41;12.40;;;9.35;;
40691;SDS011;26377;53.344;14.886;2022-07-23T02:33:10;17.15;;;9.63;;
40691;SDS011;26377;53.344;14.886;2022-07-23T02:35:40;10.88;;;8.68;;
40691;SDS011;26377;53.344;14.886;2022-07-23T02:38:07;11.57;;;9.20;;
40691;SDS011;26377;53.344;14.886;2022-07-23T02:40:35;13.80;;;9.10;;
40691;SDS011;26377;53.344;14.886;2022-07-23T02:43:04;11.78;;;9.28;;
40691;SDS011;26377;53.344;14.886;2022-07-23T02:45:32;13.68;;;9.83;;
40691;SDS011;26377;53.344;14.886;2022-07-23T02:48:01;12.75;;;9.60;;
40691;SDS011;26377;53.344;14.886;2022-07-23T02:50:31;12.58;;;9.40;;
40691;SDS011;26377;53.344;14.886;2022-07-23T02:52:59;14.30;;;9.35;;
40691;SDS011;26377;53.344;14.886;2022-07-23T02:55:26;14.60;;;9.80;;
40691;SDS011;26377;53.344;14.886;2022-07-23T02:57:57;17.80;;;11.20;;
40691;SDS011;26377;53.344;14.886;2022-07-23T03:00:24;15.15;;;10.50;;
40691;SDS011;26377;53.344;14.886;2022-07-23T03:02:55;14.75;;;9.85;;
40691;SDS011;26377;53.344;14.886;2022-07-23T03:05:24;11.83;;;8.93;;
40691;SDS011;26377;53.344;14.886;2022-07-23T03:07:51;12.28;;;9.13;;
40691;SDS011;26377;53.344;14.886;2022-07-23T03:10:20;10.78;;;7.42;;
40691;SDS011;26377;53.344;14.886;2022-07-23T03:12:51;13.80;;;9.05;;
40691;SDS011;26377;53.344;14.886;2022-07-23T03:15:19;13.90;;;8.35;;
40691;SDS011;26377;53.344;14.886;2022-07-23T03:17:48;12.78;;;8.88;;
40691;SDS011;26377;53.344;14.886;2022-07-23T03:20:15;16.17;;;11.78;;
40691;SDS011;26377;53.344;14.886;2022-07-23T03:22:45;12.70;;;8.80;;
40691;SDS011;26377;53.344;14.886;2022-07-23T03:25:12;16.45;;;11.33;;
40691;SDS011;26377;53.344;14.886;2022-07-23T03:27:42;19.25;;;11.53;;
40691;SDS011;26377;53.344;14.886;2022-07-23T03:30:15;17.15;;;11.48;;
40691;SDS011;26377;53.344;14.886;2022-07-23T03:32:42;20.92;;;14.20;;
40691;SDS011;26377;53.344;14.886;2022-07-23T03:35:11;22.93;;;16.48;;
40691;SDS011;26377;53.344;14.886;2022-07-23T03:37:40;19.52;;;13.13;;
40691;SDS011;26377;53.344;14.886;2022-07-23T03:40:08;30.23;;;20.50;;
40691;SDS011;26377;53.344;14.886;2022-07-23T03:42:39;37.58;;;25.90;;
40691;SDS011;26377;53.344;14.886;2022-07-23T03:45:08;38.10;;;27.93;;
40691;SDS011;26377;53.344;14.886;2022-07-23T03:47:38;30.82;;;22.85;;
40691;SDS011;26377;53.344;14.886;2022-07-23T03:50:07;25.23;;;20.25;;
40691;SDS011;26377;53.344;14.886;2022-07-23T03:52:35;25.77;;;20.05;;
40691;SDS011;26377;53.344;14.886;2022-07-23T03:55:03;29.85;;;22.70;;
40691;SDS011;26377;53.344;14.886;2022-07-23T03:57:35;26.93;;;21.97;;
40691;SDS011;26377;53.344;14.886;2022-07-23T04:00:06;25.25;;;18.55;;
40691;SDS011;26377;53.344;14.886;2022-07-23T04:02:40;20.57;;;16.17;;
40691;SDS011;26377;53.344;14.886;2022-07-23T04:05:09;23.98;;;17.35;;
40691;SDS011;26377;53.344;14.886;2022-07-23T04:07:39;19.42;;;14.35;;
40691;SDS011;26377;53.344;14.886;2022-07-23T04:10:08;22.00;;;16.00;;
40691;SDS011;26377;53.344;14.886;2022-07-23T04:12:38;21.87;;;13.98;;
40691;SDS011;26377;53.344;14.886;2022-07-23T04:15:06;24.90;;;15.13;;
40691;SDS011;26377;53.344;14.886;2022-07-23T04:17:37;19.98;;;14.15;;
40691;SDS011;26377;53.344;14.886;2022-07-23T04:20:08;22.67;;;15.37;;
40691;SDS011;26377;53.344;14.886;2022-07-23T04:22:39;21.52;;;15.03;;
40691;SDS011;26377;53.344;14.886;2022-07-23T04:25:06;21.05;;;14.45;;
40691;SDS011;26377;53.344;14.886;2022-07-23T04:27:38;23.02;;;14.47;;
40691;SDS011;26377;53.344;14.886;2022-07-23T04:30:09;19.60;;;13.60;;
40691;SDS011;26377;53.344;14.886;2022-07-23T04:32:36;19.55;;;13.48;;
40691;SDS011;26377;53.344;14.886;2022-07-23T04:35:06;23.02;;;13.28;;
40691;SDS011;26377;53.344;14.886;2022-07-23T04:37:36;20.05;;;12.73;;
40691;SDS011;26377;53.344;14.886;2022-07-23T04:40:06;17.62;;;12.68;;
40691;SDS011;26377;53.344;14.886;2022-07-23T04:42:37;15.15;;;10.93;;
40691;SDS011;26377;53.344;14.886;2022-07-23T04:45:07;18.75;;;11.25;;
40691;SDS011;26377;53.344;14.886;2022-07-23T04:47:37;21.30;;;9.80;;
40691;SDS011;26377;53.344;14.886;2022-07-23T04:50:08;16.23;;;9.65;;
40691;SDS011;26377;53.344;14.886;2022-07-23T04:52:38;15.08;;;8.88;;
40691;SDS011;26377;53.344;14.886;2022-07-23T04:55:05;15.18;;;7.85;;
40691;SDS011;26377;53.344;14.886;2022-07-23T04:57:36;11.22;;;7.67;;
40691;SDS011;26377;53.344;14.886;2022-07-23T05:00:04;12.58;;;7.55;;
40691;SDS011;26377;53.344;14.886;2022-07-23T05:02:38;16.80;;;9.23;;
40691;SDS011;26377;53.344;14.886;2022-07-23T05:05:05;18.10;;;9.83;;
40691;SDS011;26377;53.344;14.886;2022-07-23T05:07:37;19.32;;;9.78;;
40691;SDS011;26377;53.344;14.886;2022-07-23T05:10:04;22.48;;;11.10;;
40691;SDS011;26377;53.344;14.886;2022-07-23T05:12:32;20.25;;;9.63;;
40691;SDS011;26377;53.344;14.886;2022-07-23T05:15:03;21.57;;;8.53;;
40691;SDS011;26377;53.344;14.886;2022-07-23T05:17:33;16.50;;;7.37;;
40691;SDS011;26377;53.344;14.886;2022-07-23T05:20:02;13.30;;;7.30;;
40691;SDS011;26377;53.344;14.886;2022-07-23T05:22:34;13.93;;;7.12;;
40691;SDS011;26377;53.344;14.886;2022-07-23T05:25:01;14.50;;;7.28;;
40691;SDS011;26377;53.344;14.886;2022-07-23T05:27:35;13.20;;;7.42;;
40691;SDS011;26377;53.344;14.886;2022-07-23T05:30:02;17.90;;;6.78;;
40691;SDS011;26377;53.344;14.886;2022-07-23T05:32:32;15.55;;;7.75;;
40691;SDS011;26377;53.344;14.886;2022-07-23T05:35:01;13.55;;;6.72;;
40691;SDS011;26377;53.344;14.886;2022-07-23T05:37:33;10.10;;;6.70;;
40691;SDS011;26377;53.344;14.886;2022-07-23T05:40:04;14.25;;;6.62;;
40691;SDS011;26377;53.344;14.886;2022-07-23T05:42:37;15.45;;;6.95;;
40691;SDS011;26377;53.344;14.886;2022-07-23T05:45:06;17.07;;;7.28;;
40691;SDS011;26377;53.344;14.886;2022-07-23T05:47:45;23.90;;;9.00;;
40691;SDS011;26377;53.344;14.886;2022-07-23T05:50:17;13.58;;;7.15;;
40691;SDS011;26377;53.344;14.886;2022-07-23T05:52:47;15.75;;;8.40;;
40691;SDS011;26377;53.344;14.886;2022-07-23T05:55:32;16.80;;;8.28;;
40691;SDS011;26377;53.344;14.886;2022-07-23T05:58:02;21.37;;;8.60;;
40691;SDS011;26377;53.344;14.886;2022-07-23T06:00:34;24.27;;;9.70;;
40691;SDS011;26377;53.344;14.886;2022-07-23T06:03:02;17.52;;;9.50;;
40691;SDS011;26377;53.344;14.886;2022-07-23T06:05:29;19.15;;;8.73;;
40691;SDS011;26377;53.344;14.886;2022-07-23T06:07:57;22.98;;;8.63;;
40691;SDS011;26377;53.344;14.886;2022-07-23T06:10:24;19.17;;;8.85;;
40691;SDS011;26377;53.344;14.886;2022-07-23T06:12:54;21.70;;;8.48;;
40691;SDS011;26377;53.344;14.886;2022-07-23T06:15:24;21.87;;;7.92;;
40691;SDS011;26377;53.344;14.886;2022-07-23T06:17:55;20.00;;;9.13;;
40691;SDS011;26377;53.344;14.886;2022-07-23T06:20:23;22.15;;;9.00;;
40691;SDS011;26377;53.344;14.886;2022-07-23T06:22:52;19.90;;;8.55;;
40691;SDS011;26377;53.344;14.886;2022-07-23T06:25:21;18.05;;;8.45;;
40691;SDS011;26377;53.344;14.886;2022-07-23T06:27:54;14.05;;;6.75;;
40691;SDS011;26377;53.344;14.886;2022-07-23T06:30:23;20.12;;;8.10;;
40691;SDS011;26377;53.344;14.886;2022-07-23T06:32:52;23.52;;;7.40;;
40691;SDS011;26377;53.344;14.886;2022-07-23T06:35:20;17.75;;;7.17;;
40691;SDS011;26377;53.344;14.886;2022-07-23T06:37:50;13.88;;;6.12;;
40691;SDS011;26377;53.344;14.886;2022-07-23T06:40:22;20.27;;;6.60;;
40691;SDS011;26377;53.344;14.886;2022-07-23T06:42:50;16.48;;;7.00;;
40691;SDS011;26377;53.344;14.886;2022-07-23T06:45:22;21.77;;;6.50;;
40691;SDS011;26377;53.344;14.886;2022-07-23T06:47:56;12.43;;;6.30;;
40691;SDS011;26377;53.344;14.886;2022-07-23T06:50:24;16.40;;;6.95;;
40691;SDS011;26377;53.344;14.886;2022-07-23T06:52:54;19.42;;;6.20;;
40691;SDS011;26377;53.344;14.886;2022-07-23T06:55:21;15.23;;;5.85;;
40691;SDS011;26377;53.344;14.886;2022-07-23T06:57:49;15.28;;;6.40;;
40691;SDS011;26377;53.344;14.886;2022-07-23T07:00:16;13.75;;;6.42;;
40691;SDS011;26377;53.344;14.886;2022-07-23T07:02:44;11.33;;;6.97;;
40691;SDS011;26377;53.344;14.886;2022-07-23T07:05:11;14.90;;;7.30;;
40691;SDS011;26377;53.344;14.886;2022-07-23T07:07:39;15.60;;;6.78;;
40691;SDS011;26377;53.344;14.886;2022-07-23T07:10:08;20.82;;;6.45;;
40691;SDS011;26377;53.344;14.886;2022-07-23T07:12:40;10.00;;;5.35;;
40691;SDS011;26377;53.344;14.886;2022-07-23T07:15:08;11.43;;;4.75;;
40691;SDS011;26377;53.344;14.886;2022-07-23T07:17:37;10.35;;;4.33;;
40691;SDS011;26377;53.344;14.886;2022-07-23T07:20:05;10.30;;;3.98;;
40691;SDS011;26377;53.344;14.886;2022-07-23T07:22:38;10.75;;;3.80;;
40691;SDS011;26377;53.344;14.886;2022-07-23T07:25:07;8.10;;;3.50;;
40691;SDS011;26377;53.344;14.886;2022-07-23T07:27:38;10.70;;;4.00;;
40691;SDS011;26377;53.344;14.886;2022-07-23T07:30:06;10.15;;;3.87;;
40691;SDS011;26377;53.344;14.886;2022-07-23T07:32:35;7.85;;;2.92;;
40691;SDS011;26377;53.344;14.886;2022-07-23T07:35:05;7.70;;;3.27;;
40691;SDS011;26377;53.344;14.886;2022-07-23T07:37:35;7.35;;;3.45;;
40691;SDS011;26377;53.344;14.886;2022-07-23T07:40:06;7.83;;;3.47;;
40691;SDS011;26377;53.344;14.886;2022-07-23T07:42:34;9.83;;;3.07;;
40691;SDS011;26377;53.344;14.886;2022-07-23T07:45:03;5.97;;;2.40;;
40691;SDS011;26377;53.344;14.886;2022-07-23T07:47:35;9.55;;;2.72;;
40691;SDS011;26377;53.344;14.886;2022-07-23T07:50:07;9.10;;;3.50;;
40691;SDS011;26377;53.344;14.886;2022-07-23T07:52:38;11.53;;;3.42;;
40691;SDS011;26377;53.344;14.886;2022-07-23T07:55:08;7.72;;;3.12;;
40691;SDS011;26377;53.344;14.886;2022-07-23T07:57:42;7.40;;;2.65;;
40691;SDS011;26377;53.344;14.886;2022-07-23T08:00:12;8.83;;;3.65;;
40691;SDS011;26377;53.344;14.886;2022-07-23T08:02:44;6.37;;;3.25;;
40691;SDS011;26377;53.344;14.886;2022-07-23T08:05:24;8.18;;;3.40;;
40691;SDS011;26377;53.344;14.886;2022-07-23T08:07:52;9.90;;;3.75;;
40691;SDS011;26377;53.344;14.886;2022-07-23T08:10:21;8.23;;;3.62;;
40691;SDS011;26377;53.344;14.886;2022-07-23T08:12:51;11.55;;;3.37;;
40691;SDS011;26377;53.344;14.886;2022-07-23T08:15:27;13.80;;;4.10;;
40691;SDS011;26377;53.344;14.886;2022-07-23T08:17:56;8.93;;;3.83;;
40691;SDS011;26377;53.344;14.886;2022-07-23T08:20:24;11.83;;;4.05;;
40691;SDS011;26377;53.344;14.886;2022-07-23T08:22:54;8.50;;;3.87;;
40691;SDS011;26377;53.344;14.886;2022-07-23T08:25:25;9.10;;;4.05;;
40691;SDS011;26377;53.344;14.886;2022-07-23T08:27:57;11.78;;;4.70;;
40691;SDS011;26377;53.344;14.886;2022-07-23T08:30:29;9.88;;;4.28;;
40691;SDS011;26377;53.344;14.886;2022-07-23T08:33:04;8.90;;;4.55;;
40691;SDS011;26377;53.344;14.886;2022-07-23T08:35:42;8.28;;;3.92;;
40691;SDS011;26377;53.344;14.886;2022-07-23T08:38:17;7.22;;;3.92;;
40691;SDS011;26377;53.344;14.886;2022-07-23T08:40:51;10.88;;;4.78;;
40691;SDS011;26377;53.344;14.886;2022-07-23T08:43:24;17.10;;;4.50;;
40691;SDS011;26377;53.344;14.886;2022-07-23T08:45:57;10.40;;;4.15;;
40691;SDS011;26377;53.344;14.886;2022-07-23T08:48:31;9.25;;;3.47;;
40691;SDS011;26377;53.344;14.886;2022-07-23T08:51:01;6.85;;;3.92;;
40691;SDS011;26377;53.344;14.886;2022-07-23T08:53:33;12.33;;;3.72;;
40691;SDS011;26377;53.344;14.886;2022-07-23T08:56:05;11.65;;;3.62;;
40691;SDS011;26377;53.344;14.886;2022-07-23T08:58:32;6.33;;;2.85;;
40691;SDS011;26377;53.344;14.886;2022-07-23T09:01:01;9.25;;;3.50;;
40691;SDS011;26377;53.344;14.886;2022-07-23T09:03:32;10.85;;;4.08;;
40691;SDS011;26377;53.344;14.886;2022-07-23T09:08:36;8.75;;;3.47;;
40691;SDS011;26377;53.344;14.886;2022-07-23T09:11:09;6.45;;;2.60;;
40691;SDS011;26377;53.344;14.886;2022-07-23T09:13:40;9.15;;;3.35;;
40691;SDS011;26377;53.344;14.886;2022-07-23T09:16:28;8.78;;;3.58;;
40691;SDS011;26377;53.344;14.886;2022-07-23T09:19:03;9.18;;;3.15;;
40691;SDS011;26377;53.344;14.886;2022-07-23T09:21:33;7.47;;;2.98;;
40691;SDS011;26377;53.344;14.886;2022-07-23T09:24:07;5.70;;;2.60;;
40691;SDS011;26377;53.344;14.886;2022-07-23T09:26:38;7.25;;;2.85;;
40691;SDS011;26377;53.344;14.886;2022-07-23T09:29:24;8.03;;;3.10;;
40691;SDS011;26377;53.344;14.886;2022-07-23T09:31:58;9.88;;;3.12;;
40691;SDS011;26377;53.344;14.886;2022-07-23T09:34:34;9.33;;;2.90;;
40691;SDS011;26377;53.344;14.886;2022-07-23T09:37:20;8.65;;;3.27;;
40691;SDS011;26377;53.344;14.886;2022-07-23T09:39:47;5.85;;;2.62;;
40691;SDS011;26377;53.344;14.886;2022-07-23T09:42:24;8.65;;;2.65;;
40691;SDS011;26377;53.344;14.886;2022-07-23T09:44:53;10.00;;;2.62;;
40691;SDS011;26377;53.344;14.886;2022-07-23T09:47:26;6.22;;;2.65;;
40691;SDS011;26377;53.344;14.886;2022-07-23T09:52:35;6.47;;;2.95;;
40691;SDS011;26377;53.344;14.886;2022-07-23T09:55:11;6.47;;;2.90;;
40691;SDS011;26377;53.344;14.886;2022-07-23T09:57:40;12.95;;;3.92;;
40691;SDS011;26377;53.344;14.886;2022-07-23T10:00:12;8.95;;;3.00;;
40691;SDS011;26377;53.344;14.886;2022-07-23T10:02:43;7.58;;;2.95;;
40691;SDS011;26377;53.344;14.886;2022-07-23T10:05:28;4.65;;;2.35;;
40691;SDS011;26377;53.344;14.886;2022-07-23T10:08:18;9.38;;;2.87;;
40691;SDS011;26377;53.344;14.886;2022-07-23T10:11:04;6.55;;;3.45;;
40691;SDS011;26377;53.344;14.886;2022-07-23T10:13:50;10.15;;;2.92;;
40691;SDS011;26377;53.344;14.886;2022-07-23T10:16:30;6.15;;;2.72;;
40691;SDS011;26377;53.344;14.886;2022-07-23T10:19:00;7.70;;;3.05;;
40691;SDS011;26377;53.344;14.886;2022-07-23T10:44:07;8.58;;;2.50;;
40691;SDS011;26377;53.344;14.886;2022-07-23T10:46:54;6.75;;;2.17;;
40691;SDS011;26377;53.344;14.886;2022-07-23T10:49:38;7.10;;;2.30;;
40691;SDS011;26377;53.344;14.886;2022-07-23T10:52:15;6.25;;;2.50;;
40691;SDS011;26377;53.344;14.886;2022-07-23T10:54:56;7.67;;;2.05;;
40691;SDS011;26377;53.344;14.886;2022-07-23T10:57:50;4.58;;;2.20;;
40691;SDS011;26377;53.344;14.886;2022-07-23T11:00:25;4.70;;;2.15;;
40691;SDS011;26377;53.344;14.886;2022-07-23T11:02:59;8.25;;;2.20;;
40691;SDS011;26377;53.344;14.886;2022-07-23T11:05:42;5.30;;;1.65;;
40691;SDS011;26377;53.344;14.886;2022-07-23T11:08:14;4.45;;;1.90;;
40691;SDS011;26377;53.344;14.886;2022-07-23T11:10:49;7.42;;;2.08;;
40691;SDS011;26377;53.344;14.886;2022-07-23T11:13:36;4.92;;;1.87;;
40691;SDS011;26377;53.344;14.886;2022-07-23T11:32:00;3.33;;;1.82;;
40691;SDS011;26377;53.344;14.886;2022-07-23T11:34:43;4.42;;;1.77;;
40691;SDS011;26377;53.344;14.886;2022-07-23T11:37:34;8.48;;;2.25;;
40691;SDS011;26377;53.344;14.886;2022-07-23T11:40:10;7.62;;;2.27;;
40691;SDS011;26377;53.344;14.886;2022-07-23T11:42:54;10.90;;;1.85;;
40691;SDS011;26377;53.344;14.886;2022-07-23T11:45:31;6.28;;;2.02;;
40691;SDS011;26377;53.344;14.886;2022-07-23T11:48:17;4.15;;;1.40;;
40691;SDS011;26377;53.344;14.886;2022-07-23T11:50:57;3.22;;;1.60;;
40691;SDS011;26377;53.344;14.886;2022-07-23T11:53:31;5.72;;;1.80;;
40691;SDS011;26377;53.344;14.886;2022-07-23T11:56:18;3.20;;;1.50;;
40691;SDS011;26377;53.344;14.886;2022-07-23T11:58:40;3.40;;;1.43;;
40691;SDS011;26377;53.344;14.886;2022-07-23T12:01:12;5.67;;;1.57;;
40691;SDS011;26377;53.344;14.886;2022-07-23T12:03:49;11.45;;;1.82;;
40691;SDS011;26377;53.344;14.886;2022-07-23T12:06:17;5.12;;;1.92;;
40691;SDS011;26377;53.344;14.886;2022-07-23T12:08:48;3.55;;;1.40;;
40691;SDS011;26377;53.344;14.886;2022-07-23T12:11:16;3.62;;;1.52;;
40691;SDS011;26377;53.344;14.886;2022-07-23T12:13:54;2.35;;;1.40;;
40691;SDS011;26377;53.344;14.886;2022-07-23T12:16:24;4.15;;;1.27;;
40691;SDS011;26377;53.344;14.886;2022-07-23T12:21:23;3.58;;;1.52;;
40691;SDS011;26377;53.344;14.886;2022-07-23T12:23:50;2.55;;;1.25;;
40691;SDS011;26377;53.344;14.886;2022-07-23T12:26:19;3.83;;;1.50;;
40691;SDS011;26377;53.344;14.886;2022-07-23T12:28:51;5.58;;;1.20;;
40691;SDS011;26377;53.344;14.886;2022-07-23T12:31:25;5.65;;;1.50;;
40691;SDS011;26377;53.344;14.886;2022-07-23T12:33:53;2.80;;;1.35;;
40691;SDS011;26377;53.344;14.886;2022-07-23T12:36:21;3.55;;;1.30;;
40691;SDS011;26377;53.344;14.886;2022-07-23T12:38:54;3.67;;;1.32;;
40691;SDS011;26377;53.344;14.886;2022-07-23T12:41:21;2.60;;;1.35;;
40691;SDS011;26377;53.344;14.886;2022-07-23T12:43:48;3.20;;;1.60;;
40691;SDS011;26377;53.344;14.886;2022-07-23T12:46:17;4.97;;;1.52;;
40691;SDS011;26377;53.344;14.886;2022-07-23T12:53:57;3.75;;;1.40;;
40691;SDS011;26377;53.344;14.886;2022-07-23T12:56:34;3.05;;;1.40;;
40691;SDS011;26377;53.344;14.886;2022-07-23T12:59:08;4.10;;;1.25;;
40691;SDS011;26377;53.344;14.886;2022-07-23T13:01:40;5.17;;;1.30;;
40691;SDS011;26377;53.344;14.886;2022-07-23T13:04:21;4.92;;;1.40;;
40691;SDS011;26377;53.344;14.886;2022-07-23T13:06:49;4.17;;;1.50;;
40691;SDS011;26377;53.344;14.886;2022-07-23T13:09:23;6.97;;;1.40;;
40691;SDS011;26377;53.344;14.886;2022-07-23T13:11:53;2.42;;;1.60;;
40691;SDS011;26377;53.344;14.886;2022-07-23T13:14:22;1.92;;;1.30;;
40691;SDS011;26377;53.344;14.886;2022-07-23T13:16:54;3.33;;;1.35;;
40691;SDS011;26377;53.344;14.886;2022-07-23T13:19:24;3.85;;;1.50;;
40691;SDS011;26377;53.344;14.886;2022-07-23T13:21:52;5.35;;;1.40;;
40691;SDS011;26377;53.344;14.886;2022-07-23T13:24:22;6.08;;;1.50;;
40691;SDS011;26377;53.344;14.886;2022-07-23T13:26:49;2.22;;;1.27;;
40691;SDS011;26377;53.344;14.886;2022-07-23T13:29:17;2.05;;;1.15;;
40691;SDS011;26377;53.344;14.886;2022-07-23T13:31:48;2.40;;;1.05;;
40691;SDS011;26377;53.344;14.886;2022-07-23T13:34:15;4.10;;;1.57;;
40691;SDS011;26377;53.344;14.886;2022-07-23T13:36:42;4.33;;;1.32;;
40691;SDS011;26377;53.344;14.886;2022-07-23T13:39:10;2.80;;;1.20;;
40691;SDS011;26377;53.344;14.886;2022-07-23T13:41:39;6.20;;;1.22;;
40691;SDS011;26377;53.344;14.886;2022-07-23T13:44:06;2.50;;;1.50;;
40691;SDS011;26377;53.344;14.886;2022-07-23T13:46:35;2.50;;;1.32;;
40691;SDS011;26377;53.344;14.886;2022-07-23T13:49:02;6.30;;;1.47;;
40691;SDS011;26377;53.344;14.886;2022-07-23T13:51:31;4.17;;;1.37;;
40691;SDS011;26377;53.344;14.886;2022-07-23T13:54:01;3.12;;;1.37;;
40691;SDS011;26377;53.344;14.886;2022-07-23T13:56:29;3.33;;;1.30;;
40691;SDS011;26377;53.344;14.886;2022-07-23T13:58:58;4.97;;;1.85;;
40691;SDS011;26377;53.344;14.886;2022-07-23T14:01:25;7.20;;;2.08;;
40691;SDS011;26377;53.344;14.886;2022-07-23T14:03:53;5.95;;;1.50;;
40691;SDS011;26377;53.344;14.886;2022-07-23T14:06:20;5.37;;;1.60;;
40691;SDS011;26377;53.344;14.886;2022-07-23T14:08:47;7.92;;;1.42;;
40691;SDS011;26377;53.344;14.886;2022-07-23T14:11:14;7.60;;;1.85;;
40691;SDS011;26377;53.344;14.886;2022-07-23T14:13:41;7.75;;;1.55;;
40691;SDS011;26377;53.344;14.886;2022-07-23T14:16:08;1.90;;;1.10;;
40691;SDS011;26377;53.344;14.886;2022-07-23T14:18:35;5.53;;;1.40;;
40691;SDS011;26377;53.344;14.886;2022-07-23T14:21:03;3.60;;;1.37;;
40691;SDS011;26377;53.344;14.886;2022-07-23T14:23:31;4.90;;;1.82;;
40691;SDS011;26377;53.344;14.886;2022-07-23T14:25:58;2.95;;;1.20;;
40691;SDS011;26377;53.344;14.886;2022-07-23T14:28:27;5.62;;;1.70;;
40691;SDS011;26377;53.344;14.886;2022-07-23T14:30:56;2.37;;;1.07;;
40691;SDS011;26377;53.344;14.886;2022-07-23T14:33:24;3.10;;;1.40;;
40691;SDS011;26377;53.344;14.886;2022-07-23T14:35:51;6.08;;;1.30;;
40691;SDS011;26377;53.344;14.886;2022-07-23T14:38:19;5.55;;;1.52;;
40691;SDS011;26377;53.344;14.886;2022-07-23T14:40:46;4.20;;;1.42;;
40691;SDS011;26377;53.344;14.886;2022-07-23T14:43:13;2.52;;;1.12;;
40691;SDS011;26377;53.344;14.886;2022-07-23T14:45:41;2.67;;;1.10;;
40691;SDS011;26377;53.344;14.886;2022-07-23T14:48:08;3.95;;;1.20;;
40691;SDS011;26377;53.344;14.886;2022-07-23T14:50:35;3.65;;;1.10;;
40691;SDS011;26377;53.344;14.886;2022-07-23T14:53:03;5.83;;;1.15;;
40691;SDS011;26377;53.344;14.886;2022-07-23T14:55:31;1.90;;;1.10;;
40691;SDS011;26377;53.344;14.886;2022-07-23T14:58:00;4.70;;;1.10;;
40691;SDS011;26377;53.344;14.886;2022-07-23T15:00:27;4.22;;;1.12;;
40691;SDS011;26377;53.344;14.886;2022-07-23T15:02:55;3.45;;;1.20;;
40691;SDS011;26377;53.344;14.886;2022-07-23T15:05:23;1.95;;;1.10;;
40691;SDS011;26377;53.344;14.886;2022-07-23T15:07:52;3.75;;;1.37;;
40691;SDS011;26377;53.344;14.886;2022-07-23T15:10:19;2.52;;;1.05;;
40691;SDS011;26377;53.344;14.886;2022-07-23T15:12:49;3.80;;;0.90;;
40691;SDS011;26377;53.344;14.886;2022-07-23T15:15:18;4.35;;;1.17;;
40691;SDS011;26377;53.344;14.886;2022-07-23T15:17:46;2.60;;;1.15;;
40691;SDS011;26377;53.344;14.886;2022-07-23T15:20:15;2.33;;;1.25;;
40691;SDS011;26377;53.344;14.886;2022-07-23T15:22:42;4.17;;;1.12;;
40691;SDS011;26377;53.344;14.886;2022-07-23T15:25:11;3.60;;;1.32;;
40691;SDS011;26377;53.344;14.886;2022-07-23T15:27:39;6.05;;;1.00;;
40691;SDS011;26377;53.344;14.886;2022-07-23T15:30:08;3.62;;;1.10;;
40691;SDS011;26377;53.344;14.886;2022-07-23T15:32:37;1.80;;;1.00;;
40691;SDS011;26377;53.344;14.886;2022-07-23T15:35:05;1.50;;;0.80;;
40691;SDS011;26377;53.344;14.886;2022-07-23T15:37:34;3.67;;;0.90;;